This is the latest recevied weather packets stored in our database for station/object KC2WGU. If no packets are shown the sender has not sent any weather packets the latest 10 day(s).
| Time | Temp. | Humidity | Pressure | Rain* | Wind** | Luminosity | Snow |
|---|---|---|---|---|---|---|---|
| 1777874426 | 6.11° C | 90% | 1007.2 hPa | 0 mm | - | 0 W/m² | - |
| 1777873822 | 6.11° C | 89% | 1007.4 hPa | 0 mm | - | 0 W/m² | - |
| 1777873221 | 6.11° C | 88% | 1007.5 hPa | 0 mm | - | 0 W/m² | - |
| 1777872621 | 6.67° C | 88% | 1007.5 hPa | 0 mm | - | 0 W/m² | - |
| 1777872021 | 6.67° C | 87% | 1007.5 hPa | 0 mm | - | 0 W/m² | - |
| 1777871421 | 6.67° C | 87% | 1007.7 hPa | 0 mm | - | 0 W/m² | - |
| 1777870821 | 6.67° C | 86% | 1007.7 hPa | 0 mm | - | 0 W/m² | - |
| 1777870221 | 6.67° C | 86% | 1007.7 hPa | 0 mm | - | 0 W/m² | - |
| 1777869621 | 6.67° C | 87% | 1007.7 hPa | 0 mm | - | 0 W/m² | - |
| 1777869021 | 6.67° C | 86% | 1007.7 hPa | 0 mm | - | 0 W/m² | - |
| 1777868421 | 6.67° C | 85% | 1007.9 hPa | 0 mm | - | 0 W/m² | - |
| 1777867821 | 7.22° C | 83% | 1008.5 hPa | 0 mm | - | 0 W/m² | - |
| 1777867221 | 7.78° C | 81% | 1008.5 hPa | 0 mm | - | 0 W/m² | - |
| 1777866621 | 7.78° C | 79% | 1008.4 hPa | 0 mm | - | 0 W/m² | - |
| 1777866022 | 7.78° C | 77% | 1008.6 hPa | 0 mm | - | 0 W/m² | - |
| 1777865421 | 8.33° C | 75% | 1008.6 hPa | 0 mm | - | 0 W/m² | - |
| 1777864822 | 8.33° C | 74% | 1008.7 hPa | 0 mm | - | 0 W/m² | - |
| 1777864222 | 7.78° C | 73% | 1008.7 hPa | 0 mm | - | 0 W/m² | - |
| 1777863622 | 7.22° C | 70% | 1008.5 hPa | 0 mm | - | 0 W/m² | - |
| 1777863021 | 7.22° C | 71% | 1008.3 hPa | 0 mm | - | 0 W/m² | - |
| 1777862422 | 6.67° C | 73% | 1008.3 hPa | 0 mm | - | 0 W/m² | - |
| 1777861822 | 6.11° C | 77% | 1008.3 hPa | 0 mm | - | 0 W/m² | - |
| 1777861222 | 5° C | 79% | 1008.2 hPa | 0 mm | - | 0 W/m² | - |
| 1777860622 | 5° C | 76% | 1008.3 hPa | 0 mm | - | 0 W/m² | - |
| 1777860021 | 5.56° C | 74% | 1008.3 hPa | 0 mm | - | 0 W/m² | - |
* Rain latest hour (hover to see other rain measurements)
** Current wind speed in m/s (hover to see current wind gust speed)